Childress Municipal Airport Childress US
ICAO: KCDS
IATA: CDS
Category: Medium
Scheduled Services: No

Elevation: 1954 ft
TransAlt. 18000 ft.

Airport Communications:
ASOS:135.125
FORT WORTH CNTR:133.5
FORT WORTH RDO:122.45
CTAF/UNICOM:122.8

KCDS Zoom In..

If Map Doesn't Load, Click Here

Runways:

(A) RW 04 length 4425 ft width 60 ft
---- / hdg 41

(B) RW 18 length 5949 ft width 75 ft
---- / hdg 176

(C) RW 22 length 4425 ft width 60 ft
---- / hdg 221

(D) RW 36 length 5949 ft width 75 ft
---- / hdg 356

Location; KCDS
Day. 21 / Time. 13.41 Zulu
* Altimeter: 30.00
* Temperature: 22° c. 71.6°f.
* Wind from: 040° Speed 10 kn.
Dewpoint: 21° c.
Visibility: 3 Statute Miles.
Clouds: Broken 700 ft.
Clouds: Broken 1500 ft.
Clouds: Overcast 6000 ft.
Conditions: Light Rain.Conditions: Mist.

KCDS 211341Z AUTO 04010KT 3SM -RA BR BKN007 BKN015 OVC060 22/21 A3000 RMK AO2 P0004 T02170211


Wind From 040°
Speed 10 kn.

 
 
jpsmedia.com for Web Design worldairports.se 2018   terms of use